Time;durP1;ratioP1;P1;durP2;ratioP2;P2;SDS_P1;SDS_P2;PMS_P1;PMS_P2;Temp;Humidity;BMP_temperature;BMP_pressure;BME280_temperature;BME280_humidity;BME280_pressure;Samples;Min_cycle;Max_cycle;Signal;HPM_P1;HPM_P2
2024/02/07 00:00:53;;;;;;;8.85;4.72;;;;;;;10.00;100.00;99247.41;4867057;29;20053;-81
2024/02/07 00:03:23;;;;;;;8.05;4.15;;;;;;;9.97;100.00;99281.50;4868982;29;20053;-80
2024/02/07 00:05:50;;;;;;;5.25;3.10;;;;;;;9.84;100.00;99305.41;4855285;29;20070;-79
2024/02/07 00:08:20;;;;;;;1.95;1.20;;;;;;;9.52;100.00;99285.34;4873452;29;20049;-80
2024/02/07 00:10:52;;;;;;;4.00;1.55;;;;;;;9.14;100.00;99310.69;4874948;29;20045;-81
2024/02/07 00:13:20;;;;;;;4.07;1.38;;;;;;;8.80;100.00;99332.38;4880508;29;20072;-80
2024/02/07 00:15:50;;;;;;;1.20;0.77;;;;;;;8.49;100.00;99326.09;4871831;29;20076;-81
2024/02/07 00:18:22;;;;;;;0.40;0.40;;;;;;;8.21;100.00;99337.09;4859195;29;20058;-80
2024/02/07 00:20:48;;;;;;;1.38;0.88;;;;;;;8.11;100.00;99343.38;4875751;29;20036;-81
2024/02/07 00:23:22;;;;;;;0.88;0.88;;;;;;;8.00;100.00;99355.75;4860292;29;20128;-81
2024/02/07 00:25:49;;;;;;;0.63;0.63;;;;;;;7.92;100.00;99372.38;4880386;29;20110;-79
2024/02/07 00:28:15;;;;;;;0.52;0.52;;;;;;;7.74;100.00;99376.19;4875053;29;20375;-80
2024/02/07 00:30:53;;;;;;;0.40;0.40;;;;;;;7.63;100.00;99383.34;4862011;29;20061;-81
2024/02/07 00:33:25;;;;;;;0.40;0.40;;;;;;;7.32;100.00;99381.22;4871407;29;20072;-81
2024/02/07 00:35:55;;;;;;;0.40;0.40;;;;;;;7.26;100.00;99386.53;4871460;29;20053;-81
2024/02/07 00:38:22;;;;;;;0.40;0.40;;;;;;;7.14;100.00;99395.41;4875246;29;20444;-80
2024/02/07 00:40:50;;;;;;;2.33;0.30;;;;;;;6.95;100.00;99403.47;4840174;29;20045;-79
2024/02/07 00:43:19;;;;;;;0.52;0.25;;;;;;;6.68;100.00;99412.50;4873282;29;20509;-79
2024/02/07 00:45:47;;;;;;;0.43;0.20;;;;;;;6.43;100.00;99405.03;4861593;29;20049;-82
2024/02/07 00:48:14;;;;;;;0.38;0.20;;;;;;;6.31;100.00;99397.38;4873883;29;20056;-81
2024/02/07 00:50:41;;;;;;;2.25;0.30;;;;;;;5.90;100.00;99394.31;4872537;29;20575;-81
2024/02/07 00:53:08;;;;;;;0.30;0.20;;;;;;;5.74;100.00;99400.56;4855689;29;20084;-83
2024/02/07 00:55:43;;;;;;;1.50;0.30;;;;;;;5.54;100.00;99405.91;4869686;29;20045;-80
2024/02/07 00:58:10;;;;;;;1.27;0.40;;;;;;;5.45;100.00;99406.88;4869816;29;20053;-80
2024/02/07 01:00:36;;;;;;;5.47;0.50;;;;;;;5.31;100.00;99401.78;4877451;29;20120;-80
2024/02/07 01:03:03;;;;;;;1.75;0.30;;;;;;;5.22;100.00;99409.63;4883132;29;20474;-80
2024/02/07 01:05:32;;;;;;;2.17;0.40;;;;;;;5.23;100.00;99411.34;4876889;29;20049;-80
2024/02/07 01:08:02;;;;;;;2.70;0.52;;;;;;;5.19;100.00;99410.50;4878029;29;20603;-80
2024/02/07 01:10:29;;;;;;;3.13;0.60;;;;;;;5.24;100.00;99408.75;4866284;29;20041;-81
2024/02/07 01:12:58;;;;;;;3.40;0.30;;;;;;;5.19;100.00;99407.03;4862082;29;20091;-82
2024/02/07 01:15:25;;;;;;;2.92;0.20;;;;;;;5.19;100.00;99404.44;4857893;29;20080;-80
2024/02/07 01:17:52;;;;;;;1.67;0.38;;;;;;;5.19;100.00;99404.44;4859862;29;20049;-80
2024/02/07 01:20:21;;;;;;;2.10;0.38;;;;;;;5.21;100.00;99405.31;4860092;29;20064;-80
2024/02/07 01:22:47;;;;;;;4.63;0.60;;;;;;;5.17;100.00;99408.81;4859980;29;20049;-80
2024/02/07 01:25:14;;;;;;;0.30;0.15;;;;;;;5.19;100.00;99414.81;4878301;29;20071;-81
2024/02/07 01:27:41;;;;;;;2.40;0.93;;;;;;;5.07;100.00;99405.38;4856576;29;20438;-81
2024/02/07 01:30:11;;;;;;;2.28;0.50;;;;;;;5.01;100.00;99415.84;4849717;29;20084;-81
2024/02/07 01:32:43;;;;;;;1.83;0.43;;;;;;;5.01;100.00;99410.63;4893331;29;20447;-81
2024/02/07 01:35:10;;;;;;;0.85;0.68;;;;;;;4.98;100.00;99414.13;4870683;29;20124;-81
2024/02/07 01:37:40;;;;;;;1.30;0.60;;;;;;;4.99;100.00;99408.03;4874892;29;20560;-82
2024/02/07 01:40:14;;;;;;;1.63;0.70;;;;;;;5.00;100.00;99414.09;4868240;29;20125;-82
2024/02/07 01:42:41;;;;;;;3.80;0.60;;;;;;;5.01;100.00;99411.50;4858076;29;20089;-83
2024/02/07 01:45:30;;;;;;;1.67;0.60;;;;;;;4.95;100.00;99412.41;4872961;29;20063;-81
2024/02/07 01:47:58;;;;;;;3.95;1.33;;;;;;;4.90;100.00;99423.66;4890560;29;20137;-81
2024/02/07 01:50:25;;;;;;;2.78;0.60;;;;;;;4.85;100.00;99417.63;4877687;29;20052;-81
2024/02/07 01:52:55;;;;;;;3.42;0.85;;;;;;;4.79;100.00;99415.94;4859892;29;20056;-79
2024/02/07 01:55:22;;;;;;;6.28;1.10;;;;;;;4.81;100.00;99422.00;4867420;29;20104;-82
2024/02/07 01:57:48;;;;;;;1.77;0.43;;;;;;;4.83;100.00;99422.81;4886478;29;20060;-81
2024/02/07 02:00:15;;;;;;;4.13;0.90;;;;;;;4.88;100.00;99420.22;4854327;29;20472;-81
2024/02/07 02:02:46;;;;;;;3.50;0.63;;;;;;;4.83;100.00;99434.94;4871855;29;20041;-80
2024/02/07 02:05:16;;;;;;;1.70;0.68;;;;;;;4.79;100.00;99428.91;4842229;29;20705;-82
2024/02/07 02:07:46;;;;;;;4.15;0.73;;;;;;;4.77;100.00;99426.31;4875728;29;20056;-81
2024/02/07 02:10:14;;;;;;;1.63;0.60;;;;;;;4.76;100.00;99432.38;4873384;29;20546;-80
2024/02/07 02:12:42;;;;;;;7.88;1.77;;;;;;;4.71;100.00;99439.31;4872180;29;20528;-81
2024/02/07 02:15:11;;;;;;;3.10;0.73;;;;;;;4.65;100.00;99434.16;4873713;29;20064;-81
2024/02/07 02:17:38;;;;;;;4.03;1.00;;;;;;;4.64;100.00;99430.69;4859839;29;20513;-79
2024/02/07 02:20:06;;;;;;;3.15;0.70;;;;;;;4.69;100.00;99422.88;4857766;29;20116;-80
2024/02/07 02:23:08;;;;;;;2.88;1.20;;;;;;;4.57;100.00;99431.59;4864169;29;20053;-80
2024/02/07 02:26:12;;;;;;;2.60;0.60;;;;;;;4.53;100.00;99444.56;4854783;29;20517;-80
2024/02/07 02:29:04;;;;;;;4.10;1.23;;;;;;;4.63;100.00;99441.94;4871296;29;20061;-81
2024/02/07 02:31:33;;;;;;;4.45;0.55;;;;;;;4.58;100.00;99445.44;4853242;29;20459;-80
2024/02/07 02:34:00;;;;;;;2.22;0.60;;;;;;;4.59;100.00;99442.81;4871717;29;20132;-80
2024/02/07 02:36:27;;;;;;;1.48;0.77;;;;;;;4.59;100.00;99447.16;4873265;29;20113;-80
2024/02/07 02:38:53;;;;;;;5.22;1.58;;;;;;;4.61;100.00;99445.41;4855050;29;20054;-82
2024/02/07 02:41:24;;;;;;;5.03;1.10;;;;;;;4.60;100.00;99441.06;4856832;29;20053;-80
2024/02/07 02:43:50;;;;;;;10.50;1.77;;;;;;;4.49;100.00;99446.31;4856093;29;20389;-81
2024/02/07 02:46:17;;;;;;;1.33;0.60;;;;;;;4.34;100.00;99452.41;4867589;29;20081;-82
2024/02/07 02:48:43;;;;;;;7.00;0.80;;;;;;;4.11;100.00;99455.06;4869991;29;20132;-79
2024/02/07 02:51:13;;;;;;;2.80;0.50;;;;;;;3.92;100.00;99433.50;4887991;29;20120;-80
2024/02/07 02:53:40;;;;;;;0.68;0.32;;;;;;;3.80;100.00;99439.56;4870731;29;20053;-80
2024/02/07 02:56:07;;;;;;;2.28;0.73;;;;;;;3.81;100.00;99443.88;4870317;29;20060;-80
2024/02/07 02:58:34;;;;;;;2.63;0.40;;;;;;;3.81;100.00;99454.25;4871667;29;20053;-82
2024/02/07 03:01:03;;;;;;;0.40;0.40;;;;;;;3.84;100.00;99453.38;4868140;29;20053;-80
2024/02/07 03:03:33;;;;;;;2.97;0.28;;;;;;;3.83;100.00;99460.25;4866603;29;20104;-83
2024/02/07 03:06:00;;;;;;;1.35;0.30;;;;;;;3.83;100.00;99455.09;4861249;29;20087;-81
2024/02/07 03:11:08;;;;;;;0.40;0.32;;;;;;;3.79;100.00;99467.19;4861332;29;20131;-79
2024/02/07 03:13:35;;;;;;;0.98;0.43;;;;;;;3.79;100.00;99461.13;4859998;29;20045;-80
2024/02/07 03:16:06;;;;;;;3.10;0.70;;;;;;;3.66;100.00;99456.81;4848118;29;20053;-81
2024/02/07 03:18:38;;;;;;;2.30;0.20;;;;;;;3.41;100.00;99464.56;4888889;29;20037;-82
2024/02/07 03:21:06;;;;;;;6.80;0.65;;;;;;;3.19;100.00;99461.94;4869363;29;20506;-80
2024/02/07 03:23:34;;;;;;;0.32;0.28;;;;;;;3.19;100.00;99461.94;4874087;29;20072;-81
2024/02/07 03:26:02;;;;;;;1.70;0.40;;;;;;;3.17;100.00;99462.81;4873105;29;20105;-80
2024/02/07 03:28:30;;;;;;;3.00;0.30;;;;;;;3.13;100.00;99465.41;4853736;29;20049;-80
2024/02/07 03:30:57;;;;;;;4.30;0.40;;;;;;;3.16;100.00;99459.38;4853068;29;20410;-80
2024/02/07 03:33:25;;;;;;;1.75;0.82;;;;;;;3.20;100.00;99463.69;4856796;29;20057;-79
2024/02/07 03:35:52;;;;;;;5.20;0.90;;;;;;;3.24;100.00;99460.22;4869635;29;20109;-83
2024/02/07 03:38:19;;;;;;;1.08;0.20;;;;;;;3.23;100.00;99460.25;4860455;29;20056;-82
2024/02/07 03:40:46;;;;;;;1.95;0.30;;;;;;;3.09;100.00;99466.25;4857035;29;20059;-80
2024/02/07 03:43:17;;;;;;;4.18;0.40;;;;;;;3.14;100.00;99456.78;4874327;29;20076;-82
2024/02/07 03:45:43;;;;;;;2.95;0.30;;;;;;;3.08;100.00;99456.75;4868505;29;20136;-81
2024/02/07 03:48:13;;;;;;;2.65;0.40;;;;;;;3.07;100.00;99456.78;4879948;29;20054;-80
2024/02/07 03:50:41;;;;;;;2.92;0.50;;;;;;;3.10;100.00;99468.00;4871864;29;20045;-82
2024/02/07 03:53:08;;;;;;;3.20;0.30;;;;;;;3.12;100.00;99458.50;4870321;29;20153;-80
2024/02/07 03:55:38;;;;;;;2.78;0.60;;;;;;;3.07;100.00;99460.22;4854955;29;20052;-80
2024/02/07 03:58:06;;;;;;;7.93;0.82;;;;;;;3.07;100.00;99460.22;4868888;29;20048;-81
2024/02/07 04:00:34;;;;;;;1.50;0.45;;;;;;;3.17;100.00;99450.75;4857172;29;20750;-81
2024/02/07 04:03:01;;;;;;;7.30;0.50;;;;;;;3.23;100.00;99448.16;4852574;29;20049;-80
2024/02/07 04:05:28;;;;;;;1.73;0.80;;;;;;;3.23;100.00;99448.16;4862333;29;20045;-82
2024/02/07 04:07:54;;;;;;;2.75;0.43;;;;;;;3.17;100.00;99448.16;4871890;29;20045;-80
2024/02/07 04:10:24;;;;;;;3.13;0.52;;;;;;;3.25;100.00;99446.44;4868944;29;20093;-83
2024/02/07 05:15:44;;;;;;;3.80;0.95;;;;;;;3.41;100.00;99460.25;4868778;29;20079;-81
2024/02/07 05:18:11;;;;;;;3.10;0.70;;;;;;;3.41;100.00;99456.81;4862850;29;20059;-80
2024/02/07 05:20:37;;;;;;;5.47;1.65;;;;;;;3.45;100.00;99467.16;4861582;29;20122;-82
2024/02/07 05:23:04;;;;;;;4.38;2.05;;;;;;;3.42;100.00;99456.81;4863925;29;20041;-81
2024/02/07 05:25:32;;;;;;;4.03;1.17;;;;;;;3.46;100.00;99470.63;4860003;29;20132;-81
2024/02/07 05:27:59;;;;;;;7.65;1.00;;;;;;;3.53;100.00;99472.34;4887176;29;20045;-80
2024/02/07 05:30:26;;;;;;;5.55;1.10;;;;;;;3.52;100.00;99469.75;4884233;29;20076;-81
2024/02/07 05:32:56;;;;;;;3.33;0.95;;;;;;;3.52;100.00;99473.22;4864017;29;20041;-80
2024/02/07 05:35:22;;;;;;;2.92;1.00;;;;;;;3.51;100.00;99471.50;4862212;29;20081;-80
2024/02/07 05:37:55;;;;;;;3.60;0.95;;;;;;;3.57;100.00;99479.25;4879624;29;20050;-81
2024/02/07 05:40:26;;;;;;;8.63;1.88;;;;;;;3.61;100.00;99480.09;4877308;29;20053;-81
2024/02/07 05:42:53;;;;;;;10.95;1.48;;;;;;;3.58;100.00;99477.53;4867749;29;20062;-80
2024/02/07 05:45:19;;;;;;;3.85;1.35;;;;;;;3.60;100.00;99478.41;4855212;29;20053;-80
2024/02/07 05:47:46;;;;;;;4.60;1.20;;;;;;;3.61;100.00;99496.50;4872167;29;20135;-81
2024/02/07 05:50:18;;;;;;;5.25;1.15;;;;;;;3.71;100.00;99502.53;4876557;29;20443;-82
2024/02/07 05:52:45;;;;;;;6.78;1.45;;;;;;;3.67;100.00;99495.66;4867042;29;20041;-82
2024/02/07 05:55:15;;;;;;;7.63;1.23;;;;;;;3.67;100.00;99507.72;4891846;29;20076;-81
2024/02/07 05:57:42;;;;;;;8.93;1.42;;;;;;;3.67;100.00;99505.16;4875535;29;20127;-80
2024/02/07 06:00:10;;;;;;;4.90;1.33;;;;;;;3.69;100.00;99512.06;4862737;29;20060;-80
2024/02/07 06:02:38;;;;;;;4.93;1.60;;;;;;;3.69;100.00;99514.63;4871536;29;20049;-82
2024/02/07 06:05:05;;;;;;;3.65;1.10;;;;;;;3.67;100.00;99506.00;4857999;29;20055;-83
2024/02/07 06:07:35;;;;;;;5.70;1.10;;;;;;;3.66;100.00;99518.94;4870415;29;20049;-81
2024/02/07 06:10:02;;;;;;;8.15;2.45;;;;;;;3.65;100.00;99525.84;4873559;29;20137;-82
2024/02/07 06:12:30;;;;;;;8.55;1.73;;;;;;;3.69;100.00;99521.53;4859877;29;20057;-82
2024/02/07 06:14:58;;;;;;;5.00;3.05;;;;;;;3.64;100.00;99522.38;4874249;29;20067;-80
2024/02/07 06:17:29;;;;;;;6.22;1.30;;;;;;;3.68;100.00;99536.19;4860097;29;20072;-83
2024/02/07 06:19:56;;;;;;;8.65;1.10;;;;;;;3.67;100.00;99528.44;4871834;29;20048;-80
2024/02/07 06:22:23;;;;;;;1.77;0.73;;;;;;;3.69;100.00;99526.69;4870454;29;20144;-80
2024/02/07 06:24:50;;;;;;;6.40;1.35;;;;;;;3.71;100.00;99537.94;4871895;29;20062;-80
2024/02/07 06:27:16;;;;;;;10.35;1.25;;;;;;;3.71;100.00;99530.16;4865138;29;20487;-83
2024/02/07 06:29:43;;;;;;;8.73;1.10;;;;;;;3.75;100.00;99529.28;4875060;29;20457;-83
2024/02/07 06:32:09;;;;;;;4.38;1.60;;;;;;;3.74;100.00;99537.91;4870510;29;20041;-81
2024/02/07 06:34:41;;;;;;;9.35;1.45;;;;;;;3.78;100.00;99532.75;4873563;29;20768;-81
2024/02/07 06:37:10;;;;;;;7.93;2.00;;;;;;;3.78;100.00;99539.63;4870195;29;20104;-81
2024/02/07 06:39:37;;;;;;;8.32;1.20;;;;;;;3.81;100.00;99524.97;4867783;29;20549;-83
2024/02/07 06:42:03;;;;;;;16.88;2.15;;;;;;;3.83;100.00;99526.72;4873374;29;20064;-80
2024/02/07 06:44:30;;;;;;;3.70;1.10;;;;;;;3.88;100.00;99530.16;4852932;29;20102;-80
2024/02/07 06:46:58;;;;;;;3.92;1.40;;;;;;;3.90;100.00;99534.50;4857813;29;20089;-82
2024/02/07 06:49:24;;;;;;;6.82;1.90;;;;;;;3.97;100.00;99541.38;4857734;29;20053;-82
2024/02/07 06:51:51;;;;;;;9.68;1.33;;;;;;;3.95;100.00;99542.22;4849591;29;20349;-82
2024/02/07 06:54:24;;;;;;;7.95;1.60;;;;;;;3.89;100.00;99552.63;4855935;29;20164;-83
2024/02/07 06:56:56;;;;;;;4.65;1.33;;;;;;;3.91;100.00;99563.81;4852550;29;20053;-81
2024/02/07 06:59:25;;;;;;;11.20;3.50;;;;;;;3.90;100.00;99562.97;4870619;29;20088;-80
2024/02/07 07:01:52;;;;;;;5.57;1.63;;;;;;;3.96;100.00;99568.16;4887039;29;20048;-80
2024/02/07 07:04:19;;;;;;;5.07;1.20;;;;;;;3.93;100.00;99573.31;4877469;29;20049;-83
2024/02/07 07:06:48;;;;;;;5.28;1.67;;;;;;;3.96;100.00;99578.50;4857905;29;20226;-80
2024/02/07 07:09:18;;;;;;;7.57;1.70;;;;;;;3.96;100.00;99578.50;4891087;29;20109;-81
2024/02/07 07:11:47;;;;;;;10.90;2.15;;;;;;;3.98;100.00;99594.03;4869385;29;20049;-81
2024/02/07 07:14:18;;;;;;;15.07;2.05;;;;;;;4.04;100.00;99590.59;4875913;29;20535;-82
2024/02/07 07:16:45;;;;;;;6.25;2.10;;;;;;;3.96;100.00;99601.81;4886577;29;20577;-82
2024/02/07 07:19:12;;;;;;;6.22;2.25;;;;;;;4.04;100.00;99606.13;4862605;29;21551;-81
2024/02/07 07:21:39;;;;;;;6.50;1.75;;;;;;;4.04;100.00;99607.00;4875651;29;20041;-81
2024/02/07 07:24:06;;;;;;;9.35;1.88;;;;;;;4.07;100.00;99613.91;4862759;29;20144;-81
2024/02/07 07:26:35;;;;;;;11.38;1.85;;;;;;;4.12;100.00;99633.75;4857027;29;20168;-83
2024/02/07 07:29:02;;;;;;;6.22;2.58;;;;;;;4.12;100.00;99622.56;4857566;29;20053;-83
2024/02/07 07:31:30;;;;;;;8.00;1.60;;;;;;;4.06;100.00;99633.75;4885534;29;20057;-82
2024/02/07 07:33:58;;;;;;;11.48;2.15;;;;;;;4.04;100.00;99632.91;4872683;29;20053;-81
2024/02/07 07:36:27;;;;;;;5.25;1.70;;;;;;;4.10;100.00;99640.66;4877654;29;20085;-81
2024/02/07 07:38:55;;;;;;;6.50;1.80;;;;;;;4.15;100.00;99643.25;4872884;29;20104;-82
2024/02/07 07:41:27;;;;;;;12.32;2.78;;;;;;;4.16;100.00;99657.06;4872083;29;20076;-82
2024/02/07 07:43:54;;;;;;;4.55;2.00;;;;;;;4.20;100.00;99656.19;4855386;29;20517;-80
2024/02/07 07:46:21;;;;;;;6.93;2.25;;;;;;;4.21;100.00;99656.22;4857277;29;20053;-82
2024/02/07 07:48:47;;;;;;;4.03;1.50;;;;;;;4.23;100.00;99654.50;4874312;29;20132;-82
2024/02/07 07:51:19;;;;;;;12.10;2.17;;;;;;;4.30;100.00;99668.31;4874168;29;20148;-81
2024/02/07 07:53:48;;;;;;;9.57;2.95;;;;;;;4.29;100.00;99671.78;4870770;29;20045;-80
2024/02/07 07:56:15;;;;;;;8.75;2.10;;;;;;;4.35;100.00;99671.75;4868692;29;20105;-80
2024/02/07 07:58:43;;;;;;;9.60;2.10;;;;;;;4.39;100.00;99683.84;4871503;29;20692;-81
2024/02/07 08:01:19;;;;;;;6.88;2.17;;;;;;;4.42;100.00;99685.59;4856431;29;20053;-82
2024/02/07 08:03:46;;;;;;;11.32;3.10;;;;;;;4.41;100.00;99674.38;4867140;29;20510;-81
2024/02/07 08:06:16;;;;;;;13.35;2.58;;;;;;;4.45;100.00;99678.69;4872309;29;20498;-82
2024/02/07 08:08:46;;;;;;;9.90;2.33;;;;;;;4.42;100.00;99670.03;4852483;29;20045;-81
2024/02/07 08:11:13;;;;;;;6.35;1.77;;;;;;;4.42;100.00;99678.69;4871348;29;20153;-80
2024/02/07 08:13:42;;;;;;;6.88;1.92;;;;;;;4.42;100.00;99675.22;4852502;29;20072;-80
2024/02/07 08:16:09;;;;;;;5.60;1.90;;;;;;;4.41;100.00;99684.72;4862286;29;20087;-80
2024/02/07 08:18:36;;;;;;;8.38;2.40;;;;;;;4.48;100.00;99695.97;4870914;29;20067;-80
2024/02/07 08:21:04;;;;;;;10.23;2.65;;;;;;;4.46;100.00;99692.53;4887491;29;20041;-81
2024/02/07 08:23:31;;;;;;;8.35;2.13;;;;;;;4.48;100.00;99695.97;4879404;29;20052;-82
2024/02/07 08:25:58;;;;;;;12.82;3.28;;;;;;;4.48;100.00;99695.97;4863698;29;20085;-81
2024/02/07 08:28:24;;;;;;;9.60;2.65;;;;;;;4.48;100.00;99693.38;4875510;29;20049;-83
2024/02/07 08:30:51;;;;;;;5.72;2.42;;;;;;;4.52;100.00;99700.28;4859636;29;20053;-79
2024/02/07 08:33:20;;;;;;;8.48;2.90;;;;;;;4.56;100.00;99703.75;4877995;29;20064;-81
2024/02/07 08:35:49;;;;;;;10.30;2.90;;;;;;;4.59;100.00;99714.97;4877843;29;20053;-81
2024/02/07 08:38:18;;;;;;;9.85;2.30;;;;;;;4.62;100.00;99721.91;4859094;29;20117;-81
2024/02/07 08:40:45;;;;;;;5.75;2.05;;;;;;;4.64;100.00;99723.63;4874540;29;20383;-81
2024/02/07 08:43:12;;;;;;;13.82;3.47;;;;;;;4.66;100.00;99723.63;4861491;29;20068;-81
2024/02/07 08:45:38;;;;;;;5.10;2.03;;;;;;;4.67;100.00;99730.53;4886669;29;20474;-80
2024/02/07 08:48:07;;;;;;;7.95;2.78;;;;;;;4.70;100.00;99733.13;4872663;29;20463;-82
2024/02/07 08:50:34;;;;;;;5.65;2.10;;;;;;;4.75;100.00;99728.78;4872471;29;20046;-81
2024/02/07 08:53:02;;;;;;;8.43;1.83;;;;;;;4.78;100.00;99722.75;4876540;29;20055;-80
2024/02/07 08:55:29;;;;;;;8.95;2.42;;;;;;;4.75;100.00;99722.75;4879290;29;20419;-81
2024/02/07 08:57:56;;;;;;;9.45;2.13;;;;;;;4.74;100.00;99727.06;4874604;29;20061;-79
2024/02/07 09:00:29;;;;;;;5.28;2.33;;;;;;;4.81;100.00;99730.53;4869754;29;20049;-82
2024/02/07 09:02:55;;;;;;;14.02;2.72;;;;;;;4.82;100.00;99731.41;4862027;29;20056;-80
2024/02/07 09:05:22;;;;;;;13.88;3.72;;;;;;;4.89;100.00;99733.09;4864229;29;20053;-82
2024/02/07 09:07:52;;;;;;;12.43;3.25;;;;;;;4.97;100.00;99736.59;4874703;29;20049;-80
2024/02/07 09:10:20;;;;;;;15.60;2.67;;;;;;;5.05;100.00;99736.56;4876376;29;20064;-81
2024/02/07 09:12:47;;;;;;;17.35;3.28;;;;;;;5.03;100.00;99738.28;4859142;29;20141;-80
2024/02/07 09:15:13;;;;;;;7.22;1.90;;;;;;;5.10;100.00;99737.44;4874308;29;20129;-80
2024/02/07 09:17:40;;;;;;;12.45;3.13;;;;;;;5.10;100.00;99732.25;4867740;29;20420;-80
2024/02/07 09:20:08;;;;;;;8.65;3.00;;;;;;;5.05;100.00;99733.97;4873743;29;20136;-82
2024/02/07 09:22:34;;;;;;;9.40;2.63;;;;;;;5.10;100.00;99733.09;4875197;29;20136;-80
2024/02/07 09:25:01;;;;;;;9.65;3.08;;;;;;;5.16;100.00;99727.03;4862351;29;20117;-82
2024/02/07 09:27:28;;;;;;;14.75;2.72;;;;;;;5.24;100.00;99727.91;4876516;29;20057;-82
2024/02/07 09:29:56;;;;;;;10.40;2.35;;;;;;;5.34;100.00;99725.28;4862264;29;20056;-83
2024/02/07 09:32:26;;;;;;;18.40;2.78;;;;;;;5.50;100.00;99721.78;4876960;29;20116;-83
2024/02/07 09:34:53;;;;;;;18.88;4.35;;;;;;;5.53;100.00;99726.06;4862500;29;20143;-80
2024/02/07 09:37:20;;;;;;;8.45;2.33;;;;;;;5.59;100.00;99721.75;4879035;29;20053;-84
2024/02/07 09:39:47;;;;;;;13.85;2.47;;;;;;;5.58;100.00;99726.91;4873355;29;20068;-81
2024/02/07 09:42:19;;;;;;;8.15;1.60;;;;;;;5.50;100.00;99734.75;4856240;29;20055;-82
2024/02/07 09:44:52;;;;;;;14.27;3.38;;;;;;;5.51;100.00;99728.66;4864000;29;20059;-80
2024/02/07 09:47:21;;;;;;;11.35;2.30;;;;;;;5.49;100.00;99739.94;4879371;29;20053;-82
2024/02/07 09:49:48;;;;;;;8.30;2.40;;;;;;;5.58;100.00;99739.88;4874790;29;20049;-81
2024/02/07 09:52:16;;;;;;;11.63;2.53;;;;;;;5.55;100.00;99737.31;4864044;29;20064;-82
2024/02/07 09:54:47;;;;;;;15.50;2.75;;;;;;;5.54;100.00;99730.41;4871597;29;20646;-82
2024/02/07 09:57:18;;;;;;;9.05;2.53;;;;;;;5.63;100.00;99738.16;4871724;29;20059;-80
2024/02/07 09:59:48;;;;;;;12.18;2.72;;;;;;;5.74;100.00;99741.56;4875283;29;20080;-81
2024/02/07 10:02:17;;;;;;;12.45;3.03;;;;;;;5.79;100.00;99745.03;4863271;29;20092;-82
2024/02/07 10:04:50;;;;;;;13.50;3.20;;;;;;;5.92;100.00;99745.84;4878442;29;20057;-82
2024/02/07 10:07:18;;;;;;;;;;;;;;;6.00;100.00;99755.34;4868114;29;20069;-81
2024/02/07 10:09:47;;;;;;;6.80;2.65;;;;;;;6.07;100.00;99762.25;4872432;29;19924;-82
2024/02/07 10:12:15;;;;;;;12.52;2.50;;;;;;;6.04;100.00;99757.94;4880573;29;20053;-80
2024/02/07 10:14:43;;;;;;;10.88;2.60;;;;;;;6.07;100.00;99768.28;4885026;29;20073;-83
2024/02/07 10:17:10;;;;;;;17.30;3.55;;;;;;;6.25;100.00;99767.34;4872719;29;20063;-81
2024/02/07 10:19:36;;;;;;;10.05;2.67;;;;;;;6.31;100.00;99765.59;4875649;29;20514;-82
2024/02/07 10:22:17;;;;;;;11.35;2.28;;;;;;;6.35;100.00;99770.78;4875408;29;20136;-80
2024/02/07 10:24:45;;;;;;;7.93;1.95;;;;;;;6.36;100.00;99779.41;4866665;29;20052;-79
2024/02/07 10:27:22;;;;;;;15.55;2.88;;;;;;;6.20;100.00;99781.25;4875376;29;20132;-80
2024/02/07 10:29:49;;;;;;;10.45;1.90;;;;;;;6.10;100.00;99793.41;4875776;29;20065;-81
2024/02/07 10:32:17;;;;;;;16.55;4.50;;;;;;;6.13;100.00;99785.63;4884188;29;20120;-80
2024/02/07 10:34:52;;;;;;;21.20;2.42;;;;;;;6.01;100.00;99791.72;4884415;29;20105;-82
2024/02/07 10:37:18;;;;;;;11.40;3.00;;;;;;;6.10;100.00;99790.81;4866742;29;20140;-82
2024/02/07 10:39:46;;;;;;;11.45;2.28;;;;;;;6.18;100.00;99788.16;4863870;29;20144;-80
2024/02/07 10:42:12;;;;;;;15.93;2.78;;;;;;;6.09;100.00;99787.34;4864459;29;20610;-81
2024/02/07 10:44:39;;;;;;;13.07;3.50;;;;;;;6.23;100.00;99783.81;4879429;29;20072;-80
2024/02/07 10:47:09;;;;;;;13.30;2.47;;;;;;;6.11;100.00;99777.84;4864215;29;20083;-80
2024/02/07 10:49:38;;;;;;;12.90;2.55;;;;;;;6.05;100.00;99771.78;4874160;29;20030;-81
2024/02/07 10:52:10;;;;;;;10.70;2.47;;;;;;;5.91;100.00;99782.22;4869484;29;20129;-81
2024/02/07 10:54:38;;;;;;;14.68;3.15;;;;;;;5.72;100.00;99781.41;4872707;29;20390;-80
2024/02/07 10:57:05;;;;;;;16.10;5.55;;;;;;;5.70;100.00;99786.59;4872405;29;20069;-82
2024/02/07 10:59:39;;;;;;;11.35;1.95;;;;;;;5.85;100.00;99785.69;4863841;29;20468;-81
2024/02/07 11:02:13;;;;;;;;;;;;;;;5.89;100.00;99783.94;4876772;29;20413;-82
2024/02/07 11:04:40;;;;;;;8.00;2.13;;;;;;;5.95;100.00;99773.53;4895530;29;19935;-83
2024/02/07 11:07:13;;;;;;;11.43;3.05;;;;;;;5.91;100.00;99766.63;4865245;29;20521;-81
2024/02/07 11:09:44;;;;;;;9.23;2.30;;;;;;;6.15;100.00;99770.00;4866334;29;20573;-81
2024/02/07 11:12:15;;;;;;;12.48;1.98;;;;;;;6.29;100.00;99774.25;4868464;29;20045;-81
2024/02/07 11:14:50;;;;;;;18.30;4.72;;;;;;;6.36;100.00;99780.31;4870254;29;20049;-81
2024/02/07 11:17:18;;;;;;;20.27;4.35;;;;;;;6.44;100.00;99777.63;4880381;29;20144;-83
2024/02/07 11:19:46;;;;;;;9.55;2.03;;;;;;;6.56;99.46;99776.72;4863645;29;20049;-81
2024/02/07 11:22:28;;;;;;;13.90;3.45;;;;;;;6.56;96.97;99774.97;4874203;29;20052;-82
2024/02/07 11:24:57;;;;;;;15.10;2.92;;;;;;;6.42;92.86;99777.66;4876924;29;20055;-82
2024/02/07 11:27:25;;;;;;;10.07;2.72;;;;;;;6.43;94.90;99787.16;4862370;29;20053;-81
2024/02/07 11:29:54;;;;;;;13.82;2.63;;;;;;;6.47;92.54;99785.44;4866304;29;20052;-81
2024/02/07 11:32:21;;;;;;;4.95;1.85;;;;;;;6.50;90.51;99785.41;4862781;29;20374;-81
2024/02/07 11:34:54;;;;;;;12.27;3.40;;;;;;;6.54;91.39;99778.44;4863861;29;20061;-82
2024/02/07 11:37:22;;;;;;;12.90;2.67;;;;;;;6.58;91.85;99775.84;4875940;29;20057;-81
2024/02/07 11:39:50;;;;;;;10.55;3.03;;;;;;;6.63;93.32;99780.97;4856428;29;20144;-81
2024/02/07 11:42:19;;;;;;;10.80;2.88;;;;;;;6.50;92.13;99780.19;4870824;29;22033;-83
2024/02/07 11:44:53;;;;;;;10.98;3.10;;;;;;;6.61;90.82;99781.00;4874501;29;20128;-81
2024/02/07 11:47:27;;;;;;;7.82;1.40;;;;;;;6.52;89.83;99767.19;4857273;29;20064;-81
2024/02/07 11:50:02;;;;;;;6.80;1.63;;;;;;;6.45;89.52;99782.84;4875972;29;20073;-83
2024/02/07 11:52:34;;;;;;;12.80;3.00;;;;;;;6.65;90.67;99779.25;4889035;29;20117;-82
2024/02/07 11:55:15;;;;;;;14.52;4.35;;;;;;;6.73;88.44;99792.19;4863152;29;20078;-82
2024/02/07 11:57:45;;;;;;;9.60;2.15;;;;;;;6.82;84.80;99799.06;4862416;29;20052;-82
2024/02/07 12:00:26;;;;;;;7.38;1.73;;;;;;;6.71;79.00;99791.34;4884238;29;20048;-81
2024/02/07 12:02:54;;;;;;;10.45;2.30;;;;;;;6.59;80.88;99789.69;4862450;29;20045;-82
2024/02/07 12:05:23;;;;;;;14.40;2.47;;;;;;;6.55;80.24;99791.44;4860077;29;20048;-80
2024/02/07 12:07:54;;;;;;;9.68;2.42;;;;;;;6.54;80.78;99794.91;4895250;29;20069;-80
2024/02/07 12:10:22;;;;;;;11.80;2.20;;;;;;;6.54;81.28;99799.25;4870195;29;20053;-81
2024/02/07 12:12:51;;;;;;;5.45;1.88;;;;;;;6.51;82.07;99791.47;4863424;29;20049;-84
2024/02/07 12:15:20;;;;;;;7.65;2.13;;;;;;;6.33;79.11;99798.50;4862147;29;20053;-81
2024/02/07 12:17:47;;;;;;;12.10;1.80;;;;;;;6.33;78.19;99790.69;4865258;29;20096;-82
2024/02/07 12:20:14;;;;;;;6.85;1.70;;;;;;;6.20;77.95;99789.91;4876292;29;20067;-81
2024/02/07 12:22:41;;;;;;;14.73;2.47;;;;;;;6.27;78.35;99794.19;4876084;29;20356;-82
2024/02/07 12:25:16;;;;;;;15.07;2.10;;;;;;;6.22;79.38;99793.38;4871983;29;20164;-83
2024/02/07 12:27:44;;;;;;;9.68;3.15;;;;;;;6.35;79.12;99794.16;4857017;29;20053;-81
2024/02/07 12:30:11;;;;;;;11.32;2.17;;;;;;;6.35;78.91;99801.06;4860717;29;20105;-82
2024/02/07 12:32:40;;;;;;;4.20;1.35;;;;;;;6.35;78.48;99798.47;4863144;29;20059;-83
2024/02/07 12:35:07;;;;;;;21.27;2.60;;;;;;;6.41;78.13;99807.13;4878166;29;20136;-83
2024/02/07 12:37:35;;;;;;;10.88;1.90;;;;;;;6.59;78.04;99818.28;4873857;29;20132;-82
2024/02/07 12:40:11;;;;;;;10.90;1.95;;;;;;;6.66;77.63;99819.97;4875102;29;20059;-82
2024/02/07 12:42:38;;;;;;;10.68;1.67;;;;;;;6.72;77.27;99824.28;4859052;29;20101;-82
2024/02/07 12:45:05;;;;;;;21.33;4.30;;;;;;;6.66;75.80;99826.91;4878742;29;20048;-82